sensor_id;sensor_type;location;lat;lon;timestamp;P1;durP1;ratioP1;P2;durP2;ratioP2
15788;SDS011;59075;50.670;6.474;2022-11-21T06:01:01;719.33;;;664.93;;
15788;SDS011;59075;50.670;6.474;2022-11-21T06:03:28;715.33;;;660.93;;
15788;SDS011;59075;50.670;6.474;2022-11-21T06:06:00;722.97;;;668.30;;
15788;SDS011;59075;50.670;6.474;2022-11-21T06:08:28;726.73;;;671.93;;
15788;SDS011;59075;50.670;6.474;2022-11-21T06:10:56;731.67;;;676.67;;
15788;SDS011;59075;50.670;6.474;2022-11-21T06:13:22;726.43;;;671.50;;
15788;SDS011;59075;50.670;6.474;2022-11-21T06:15:50;727.43;;;672.47;;
15788;SDS011;59075;50.670;6.474;2022-11-21T06:18:19;724.07;;;669.17;;
15788;SDS011;59075;50.670;6.474;2022-11-21T06:20:46;722.10;;;667.23;;
15788;SDS011;59075;50.670;6.474;2022-11-21T06:23:13;729.77;;;674.93;;
15788;SDS011;59075;50.670;6.474;2022-11-21T06:25:40;733.13;;;677.03;;
15788;SDS011;59075;50.670;6.474;2022-11-21T06:28:07;721.47;;;667.03;;
15788;SDS011;59075;50.670;6.474;2022-11-21T06:30:34;726.07;;;671.40;;
15788;SDS011;59075;50.670;6.474;2022-11-21T06:33:02;725.03;;;670.20;;
15788;SDS011;59075;50.670;6.474;2022-11-21T06:35:31;718.20;;;663.60;;
15788;SDS011;59075;50.670;6.474;2022-11-21T06:38:01;727.70;;;672.87;;
15788;SDS011;59075;50.670;6.474;2022-11-21T06:40:28;722.43;;;667.83;;
15788;SDS011;59075;50.670;6.474;2022-11-21T06:42:55;726.57;;;671.80;;
15788;SDS011;59075;50.670;6.474;2022-11-21T06:45:21;721.47;;;666.90;;
15788;SDS011;59075;50.670;6.474;2022-11-21T06:47:48;718.83;;;664.23;;
15788;SDS011;59075;50.670;6.474;2022-11-21T06:50:15;723.70;;;669.20;;
15788;SDS011;59075;50.670;6.474;2022-11-21T06:52:43;728.27;;;673.47;;
15788;SDS011;59075;50.670;6.474;2022-11-21T06:55:10;721.10;;;666.43;;
15788;SDS011;59075;50.670;6.474;2022-11-21T06:57:36;726.87;;;671.50;;
15788;SDS011;59075;50.670;6.474;2022-11-21T07:00:04;721.33;;;666.50;;
15788;SDS011;59075;50.670;6.474;2022-11-21T07:02:31;732.53;;;677.43;;
15788;SDS011;59075;50.670;6.474;2022-11-21T07:04:58;732.83;;;677.47;;
15788;SDS011;59075;50.670;6.474;2022-11-21T07:07:25;726.60;;;671.87;;
15788;SDS011;59075;50.670;6.474;2022-11-21T07:09:53;727.13;;;672.37;;
15788;SDS011;59075;50.670;6.474;2022-11-21T07:12:19;726.83;;;672.00;;
15788;SDS011;59075;50.670;6.474;2022-11-21T07:15:04;720.03;;;665.30;;
15788;SDS011;59075;50.670;6.474;2022-11-21T07:17:31;719.97;;;665.20;;
15788;SDS011;59075;50.670;6.474;2022-11-21T07:19:57;722.63;;;667.83;;
15788;SDS011;59075;50.670;6.474;2022-11-21T07:22:24;718.80;;;663.90;;
15788;SDS011;59075;50.670;6.474;2022-11-21T07:24:52;721.70;;;667.10;;
15788;SDS011;59075;50.670;6.474;2022-11-21T07:27:24;711.90;;;657.47;;
15788;SDS011;59075;50.670;6.474;2022-11-21T07:29:53;721.67;;;666.70;;
15788;SDS011;59075;50.670;6.474;2022-11-21T07:32:21;712.90;;;658.47;;
15788;SDS011;59075;50.670;6.474;2022-11-21T07:34:48;719.73;;;665.23;;
15788;SDS011;59075;50.670;6.474;2022-11-21T07:37:15;733.33;;;678.07;;
15788;SDS011;59075;50.670;6.474;2022-11-21T07:39:41;723.17;;;668.37;;
15788;SDS011;59075;50.670;6.474;2022-11-21T07:42:10;732.50;;;677.23;;
15788;SDS011;59075;50.670;6.474;2022-11-21T07:44:36;721.80;;;667.03;;
15788;SDS011;59075;50.670;6.474;2022-11-21T07:47:03;720.40;;;665.80;;
15788;SDS011;59075;50.670;6.474;2022-11-21T07:49:30;721.53;;;666.80;;
15788;SDS011;59075;50.670;6.474;2022-11-21T07:51:57;722.17;;;667.50;;
15788;SDS011;59075;50.670;6.474;2022-11-21T07:54:24;720.13;;;665.37;;
15788;SDS011;59075;50.670;6.474;2022-11-21T07:56:50;718.67;;;664.07;;
15788;SDS011;59075;50.670;6.474;2022-11-21T07:59:18;720.63;;;665.80;;
15788;SDS011;59075;50.670;6.474;2022-11-21T08:01:45;727.87;;;672.40;;
15788;SDS011;59075;50.670;6.474;2022-11-21T08:04:12;728.73;;;673.50;;
15788;SDS011;59075;50.670;6.474;2022-11-21T08:06:38;729.50;;;674.53;;
15788;SDS011;59075;50.670;6.474;2022-11-21T08:09:05;727.87;;;673.00;;
15788;SDS011;59075;50.670;6.474;2022-11-21T08:11:34;727.37;;;672.43;;
15788;SDS011;59075;50.670;6.474;2022-11-21T08:14:01;717.87;;;663.10;;
15788;SDS011;59075;50.670;6.474;2022-11-21T08:16:29;722.73;;;668.03;;
15788;SDS011;59075;50.670;6.474;2022-11-21T08:18:56;727.07;;;672.20;;
15788;SDS011;59075;50.670;6.474;2022-11-21T08:21:23;723.47;;;668.63;;
15788;SDS011;59075;50.670;6.474;2022-11-21T08:23:50;719.30;;;664.60;;
15788;SDS011;59075;50.670;6.474;2022-11-21T08:26:17;730.97;;;676.10;;
15788;SDS011;59075;50.670;6.474;2022-11-21T08:28:43;727.37;;;672.50;;
15788;SDS011;59075;50.670;6.474;2022-11-21T08:31:10;714.63;;;660.13;;
15788;SDS011;59075;50.670;6.474;2022-11-21T08:33:38;716.27;;;661.77;;
15788;SDS011;59075;50.670;6.474;2022-11-21T08:36:05;712.70;;;658.53;;
15788;SDS011;59075;50.670;6.474;2022-11-21T08:38:41;732.30;;;677.20;;
15788;SDS011;59075;50.670;6.474;2022-11-21T08:41:27;719.23;;;664.63;;
15788;SDS011;59075;50.670;6.474;2022-11-21T08:44:12;732.47;;;677.40;;
15788;SDS011;59075;50.670;6.474;2022-11-21T08:46:39;721.93;;;667.27;;
15788;SDS011;59075;50.670;6.474;2022-11-21T08:49:07;724.13;;;669.47;;
15788;SDS011;59075;50.670;6.474;2022-11-21T08:51:33;720.97;;;666.30;;
15788;SDS011;59075;50.670;6.474;2022-11-21T08:54:00;733.77;;;678.50;;
15788;SDS011;59075;50.670;6.474;2022-11-21T08:56:27;731.10;;;676.20;;
15788;SDS011;59075;50.670;6.474;2022-11-21T08:58:54;720.33;;;665.77;;
15788;SDS011;59075;50.670;6.474;2022-11-21T09:01:21;715.20;;;660.90;;
15788;SDS011;59075;50.670;6.474;2022-11-21T09:03:48;723.33;;;668.60;;
15788;SDS011;59075;50.670;6.474;2022-11-21T09:06:16;723.93;;;669.23;;
15788;SDS011;59075;50.670;6.474;2022-11-21T09:08:43;758.20;;;702.03;;
15788;SDS011;59075;50.670;6.474;2022-11-21T09:11:10;742.97;;;687.50;;
15788;SDS011;59075;50.670;6.474;2022-11-21T09:13:37;752.07;;;696.53;;
15788;SDS011;59075;50.670;6.474;2022-11-21T09:16:04;755.30;;;699.70;;
15788;SDS011;59075;50.670;6.474;2022-11-21T09:18:50;750.93;;;695.27;;
15788;SDS011;59075;50.670;6.474;2022-11-21T09:21:19;751.00;;;695.27;;
15788;SDS011;59075;50.670;6.474;2022-11-21T09:23:46;747.17;;;691.70;;
15788;SDS011;59075;50.670;6.474;2022-11-21T09:26:13;730.33;;;675.47;;
15788;SDS011;59075;50.670;6.474;2022-11-21T09:28:40;730.27;;;675.63;;
15788;SDS011;59075;50.670;6.474;2022-11-21T09:31:10;729.63;;;674.83;;
15788;SDS011;59075;50.670;6.474;2022-11-21T09:33:37;732.90;;;678.17;;
15788;SDS011;59075;50.670;6.474;2022-11-21T09:36:03;740.43;;;685.40;;
15788;SDS011;59075;50.670;6.474;2022-11-21T09:38:31;729.23;;;674.50;;
15788;SDS011;59075;50.670;6.474;2022-11-21T09:40:59;735.07;;;680.20;;
15788;SDS011;59075;50.670;6.474;2022-11-21T09:44:00;736.60;;;681.20;;
15788;SDS011;59075;50.670;6.474;2022-11-21T09:46:40;734.63;;;679.70;;
15788;SDS011;59075;50.670;6.474;2022-11-21T09:49:12;743.07;;;687.73;;
15788;SDS011;59075;50.670;6.474;2022-11-21T09:51:39;740.80;;;685.20;;
15788;SDS011;59075;50.670;6.474;2022-11-21T09:54:14;736.30;;;680.90;;
15788;SDS011;59075;50.670;6.474;2022-11-21T09:56:50;745.53;;;689.77;;
15788;SDS011;59075;50.670;6.474;2022-11-21T09:59:26;730.17;;;675.17;;
15788;SDS011;59075;50.670;6.474;2022-11-21T10:01:57;734.33;;;679.23;;
15788;SDS011;59075;50.670;6.474;2022-11-21T10:04:24;724.37;;;669.20;;
15788;SDS011;59075;50.670;6.474;2022-11-21T10:06:54;734.13;;;679.00;;
15788;SDS011;59075;50.670;6.474;2022-11-21T10:09:31;729.73;;;674.63;;
15788;SDS011;59075;50.670;6.474;2022-11-21T10:12:11;731.07;;;676.17;;
15788;SDS011;59075;50.670;6.474;2022-11-21T10:15:09;725.00;;;670.07;;
15788;SDS011;59075;50.670;6.474;2022-11-21T10:17:46;731.67;;;676.57;;
15788;SDS011;59075;50.670;6.474;2022-11-21T10:20:31;727.53;;;672.57;;
15788;SDS011;59075;50.670;6.474;2022-11-21T10:23:12;738.83;;;683.53;;
15788;SDS011;59075;50.670;6.474;2022-11-21T10:25:53;741.97;;;685.60;;
15788;SDS011;59075;50.670;6.474;2022-11-21T10:28:22;736.63;;;681.17;;
15788;SDS011;59075;50.670;6.474;2022-11-21T10:30:53;741.83;;;686.33;;
15788;SDS011;59075;50.670;6.474;2022-11-21T10:33:25;740.57;;;685.17;;
15788;SDS011;59075;50.670;6.474;2022-11-21T10:35:56;747.07;;;691.40;;
15788;SDS011;59075;50.670;6.474;2022-11-21T10:38:26;748.50;;;692.50;;
15788;SDS011;59075;50.670;6.474;2022-11-21T10:40:59;749.97;;;693.53;;
15788;SDS011;59075;50.670;6.474;2022-11-21T10:43:30;742.80;;;687.10;;
15788;SDS011;59075;50.670;6.474;2022-11-21T10:46:21;758.50;;;701.67;;
15788;SDS011;59075;50.670;6.474;2022-11-21T10:48:49;737.47;;;682.10;;
15788;SDS011;59075;50.670;6.474;2022-11-21T10:51:24;732.73;;;677.70;;
15788;SDS011;59075;50.670;6.474;2022-11-21T10:54:02;740.73;;;685.30;;
15788;SDS011;59075;50.670;6.474;2022-11-21T10:56:52;728.03;;;673.10;;
15788;SDS011;59075;50.670;6.474;2022-11-21T10:59:24;734.47;;;679.30;;
15788;SDS011;59075;50.670;6.474;2022-11-21T11:01:56;736.00;;;680.70;;
15788;SDS011;59075;50.670;6.474;2022-11-21T11:04:24;730.97;;;675.70;;
15788;SDS011;59075;50.670;6.474;2022-11-21T11:06:52;748.50;;;692.80;;
15788;SDS011;59075;50.670;6.474;2022-11-21T11:09:26;755.60;;;698.93;;
15788;SDS011;59075;50.670;6.474;2022-11-21T11:14:49;768.63;;;711.07;;
15788;SDS011;59075;50.670;6.474;2022-11-21T11:17:24;743.67;;;687.53;;
15788;SDS011;59075;50.670;6.474;2022-11-21T11:19:59;760.40;;;703.50;;
15788;SDS011;59075;50.670;6.474;2022-11-21T11:22:28;769.13;;;711.63;;
15788;SDS011;59075;50.670;6.474;2022-11-21T11:24:56;766.73;;;709.20;;
15788;SDS011;59075;50.670;6.474;2022-11-21T11:27:27;756.50;;;698.53;;
15788;SDS011;59075;50.670;6.474;2022-11-21T11:29:54;755.83;;;699.73;;
15788;SDS011;59075;50.670;6.474;2022-11-21T11:32:21;726.97;;;671.93;;
15788;SDS011;59075;50.670;6.474;2022-11-21T11:34:52;747.23;;;691.57;;
15788;SDS011;59075;50.670;6.474;2022-11-21T11:37:26;736.00;;;680.50;;
15788;SDS011;59075;50.670;6.474;2022-11-21T11:40:01;733.20;;;678.17;;
15788;SDS011;59075;50.670;6.474;2022-11-21T11:42:50;738.17;;;682.83;;
15788;SDS011;59075;50.670;6.474;2022-11-21T11:45:50;745.37;;;689.13;;
15788;SDS011;59075;50.670;6.474;2022-11-21T11:48:43;734.30;;;679.03;;
15788;SDS011;59075;50.670;6.474;2022-11-21T11:51:12;750.17;;;694.30;;
15788;SDS011;59075;50.670;6.474;2022-11-21T11:53:47;740.57;;;685.20;;
15788;SDS011;59075;50.670;6.474;2022-11-21T11:56:19;741.53;;;686.03;;
15788;SDS011;59075;50.670;6.474;2022-11-21T11:58:51;748.70;;;692.90;;
15788;SDS011;59075;50.670;6.474;2022-11-21T12:01:24;739.57;;;684.17;;
15788;SDS011;59075;50.670;6.474;2022-11-21T12:03:57;756.33;;;700.27;;
15788;SDS011;59075;50.670;6.474;2022-11-21T12:06:27;746.30;;;690.70;;
15788;SDS011;59075;50.670;6.474;2022-11-21T12:09:00;747.97;;;692.27;;
15788;SDS011;59075;50.670;6.474;2022-11-21T12:11:34;750.97;;;694.90;;
15788;SDS011;59075;50.670;6.474;2022-11-21T12:14:39;741.93;;;686.57;;
15788;SDS011;59075;50.670;6.474;2022-11-21T12:17:31;746.37;;;690.87;;
15788;SDS011;59075;50.670;6.474;2022-11-21T12:20:07;735.83;;;680.43;;
15788;SDS011;59075;50.670;6.474;2022-11-21T12:22:44;741.40;;;686.10;;
15788;SDS011;59075;50.670;6.474;2022-11-21T12:25:13;736.30;;;681.10;;
15788;SDS011;59075;50.670;6.474;2022-11-21T12:27:40;750.03;;;694.17;;
15788;SDS011;59075;50.670;6.474;2022-11-21T12:33:09;738.60;;;683.37;;
15788;SDS011;59075;50.670;6.474;2022-11-21T12:35:47;749.37;;;692.90;;
15788;SDS011;59075;50.670;6.474;2022-11-21T12:38:45;730.97;;;676.07;;
15788;SDS011;59075;50.670;6.474;2022-11-21T12:41:34;738.47;;;683.23;;
15788;SDS011;59075;50.670;6.474;2022-11-21T12:44:27;740.20;;;684.97;;
15788;SDS011;59075;50.670;6.474;2022-11-21T12:47:04;744.97;;;689.53;;
15788;SDS011;59075;50.670;6.474;2022-11-21T12:49:39;741.53;;;686.30;;
15788;SDS011;59075;50.670;6.474;2022-11-21T12:52:30;738.20;;;682.93;;
15788;SDS011;59075;50.670;6.474;2022-11-21T12:58:14;730.03;;;675.20;;
15788;SDS011;59075;50.670;6.474;2022-11-21T13:00:54;742.97;;;687.63;;
15788;SDS011;59075;50.670;6.474;2022-11-21T13:03:34;749.97;;;694.30;;
15788;SDS011;59075;50.670;6.474;2022-11-21T13:06:11;738.70;;;683.43;;
15788;SDS011;59075;50.670;6.474;2022-11-21T13:08:41;738.53;;;683.33;;
15788;SDS011;59075;50.670;6.474;2022-11-21T13:11:11;750.37;;;694.80;;
15788;SDS011;59075;50.670;6.474;2022-11-21T13:14:07;741.90;;;686.33;;
15788;SDS011;59075;50.670;6.474;2022-11-21T13:16:39;739.50;;;684.20;;
15788;SDS011;59075;50.670;6.474;2022-11-21T13:19:15;745.47;;;689.90;;
15788;SDS011;59075;50.670;6.474;2022-11-21T13:21:46;747.80;;;692.30;;
15788;SDS011;59075;50.670;6.474;2022-11-21T13:27:25;744.87;;;689.57;;
15788;SDS011;59075;50.670;6.474;2022-11-21T13:32:47;736.70;;;681.50;;
15788;SDS011;59075;50.670;6.474;2022-11-21T13:38:29;747.33;;;691.37;;
15788;SDS011;59075;50.670;6.474;2022-11-21T13:40:56;744.67;;;689.07;;
15788;SDS011;59075;50.670;6.474;2022-11-21T13:43:40;760.27;;;704.40;;
15788;SDS011;59075;50.670;6.474;2022-11-21T13:46:08;743.80;;;688.40;;
15788;SDS011;59075;50.670;6.474;2022-11-21T13:48:44;754.00;;;698.20;;
15788;SDS011;59075;50.670;6.474;2022-11-21T13:51:46;746.00;;;690.30;;
15788;SDS011;59075;50.670;6.474;2022-11-21T13:54:28;743.63;;;687.90;;
15788;SDS011;59075;50.670;6.474;2022-11-21T13:57:16;742.47;;;687.07;;
15788;SDS011;59075;50.670;6.474;2022-11-21T13:59:58;749.60;;;693.83;;
15788;SDS011;59075;50.670;6.474;2022-11-21T14:02:50;749.60;;;693.90;;
15788;SDS011;59075;50.670;6.474;2022-11-21T14:05:31;753.43;;;697.30;;
15788;SDS011;59075;50.670;6.474;2022-11-21T14:08:11;742.13;;;686.23;;
15788;SDS011;59075;50.670;6.474;2022-11-21T14:10:43;745.33;;;689.80;;
15788;SDS011;59075;50.670;6.474;2022-11-21T14:13:15;759.23;;;702.77;;
15788;SDS011;59075;50.670;6.474;2022-11-21T14:15:48;757.80;;;700.50;;
15788;SDS011;59075;50.670;6.474;2022-11-21T14:18:23;757.27;;;701.43;;
15788;SDS011;59075;50.670;6.474;2022-11-21T14:20:51;742.43;;;686.93;;
15788;SDS011;59075;50.670;6.474;2022-11-21T14:23:21;748.60;;;692.90;;
15788;SDS011;59075;50.670;6.474;2022-11-21T14:25:52;756.07;;;699.40;;
15788;SDS011;59075;50.670;6.474;2022-11-21T14:28:22;749.60;;;693.47;;
15788;SDS011;59075;50.670;6.474;2022-11-21T14:30:55;742.60;;;687.03;;
15788;SDS011;59075;50.670;6.474;2022-11-21T14:33:36;728.73;;;674.03;;
15788;SDS011;59075;50.670;6.474;2022-11-21T14:36:04;738.57;;;683.47;;
15788;SDS011;59075;50.670;6.474;2022-11-21T14:38:34;747.97;;;692.13;;
15788;SDS011;59075;50.670;6.474;2022-11-21T14:41:11;736.57;;;681.37;;
15788;SDS011;59075;50.670;6.474;2022-11-21T14:43:49;748.00;;;692.23;;
15788;SDS011;59075;50.670;6.474;2022-11-21T14:46:26;746.70;;;691.13;;
15788;SDS011;59075;50.670;6.474;2022-11-21T14:48:54;735.13;;;679.90;;
15788;SDS011;59075;50.670;6.474;2022-11-21T14:51:21;738.03;;;682.40;;
15788;SDS011;59075;50.670;6.474;2022-11-21T14:53:50;750.73;;;694.90;;
15788;SDS011;59075;50.670;6.474;2022-11-21T14:56:20;749.00;;;693.27;;
15788;SDS011;59075;50.670;6.474;2022-11-21T14:58:49;741.97;;;686.53;;
15788;SDS011;59075;50.670;6.474;2022-11-21T15:01:18;743.43;;;687.87;;
15788;SDS011;59075;50.670;6.474;2022-11-21T15:03:52;745.90;;;690.27;;
15788;SDS011;59075;50.670;6.474;2022-11-21T15:06:20;742.30;;;686.73;;
15788;SDS011;59075;50.670;6.474;2022-11-21T15:08:46;754.50;;;697.90;;
15788;SDS011;59075;50.670;6.474;2022-11-21T15:11:15;749.73;;;693.87;;
15788;SDS011;59075;50.670;6.474;2022-11-21T15:13:45;744.57;;;688.90;;
15788;SDS011;59075;50.670;6.474;2022-11-21T15:16:15;744.97;;;689.23;;
15788;SDS011;59075;50.670;6.474;2022-11-21T15:18:42;755.17;;;699.17;;
15788;SDS011;59075;50.670;6.474;2022-11-21T15:21:12;750.23;;;694.50;;
15788;SDS011;59075;50.670;6.474;2022-11-21T15:23:40;742.07;;;686.60;;
15788;SDS011;59075;50.670;6.474;2022-11-21T15:28:54;736.57;;;681.07;;
15788;SDS011;59075;50.670;6.474;2022-11-21T15:31:21;741.93;;;686.07;;
15788;SDS011;59075;50.670;6.474;2022-11-21T15:33:58;736.47;;;680.97;;
15788;SDS011;59075;50.670;6.474;2022-11-21T15:36:26;746.27;;;690.63;;
15788;SDS011;59075;50.670;6.474;2022-11-21T15:38:54;756.70;;;700.43;;
15788;SDS011;59075;50.670;6.474;2022-11-21T15:41:29;747.40;;;691.47;;
15788;SDS011;59075;50.670;6.474;2022-11-21T15:46:49;737.27;;;681.63;;
15788;SDS011;59075;50.670;6.474;2022-11-21T15:49:17;748.50;;;692.03;;
15788;SDS011;59075;50.670;6.474;2022-11-21T15:51:44;751.10;;;694.70;;
15788;SDS011;59075;50.670;6.474;2022-11-21T15:54:12;751.03;;;694.97;;
15788;SDS011;59075;50.670;6.474;2022-11-21T15:56:40;743.70;;;687.80;;
15788;SDS011;59075;50.670;6.474;2022-11-21T15:59:07;756.97;;;700.87;;
15788;SDS011;59075;50.670;6.474;2022-11-21T16:01:35;758.63;;;702.37;;
15788;SDS011;59075;50.670;6.474;2022-11-21T16:04:02;748.33;;;692.13;;
15788;SDS011;59075;50.670;6.474;2022-11-21T16:06:30;756.83;;;699.97;;
15788;SDS011;59075;50.670;6.474;2022-11-21T16:08:57;764.87;;;707.90;;
15788;SDS011;59075;50.670;6.474;2022-11-21T16:11:25;744.20;;;687.97;;
15788;SDS011;59075;50.670;6.474;2022-11-21T16:13:53;757.83;;;701.13;;
15788;SDS011;59075;50.670;6.474;2022-11-21T16:16:23;755.13;;;698.73;;
15788;SDS011;59075;50.670;6.474;2022-11-21T16:18:53;757.47;;;701.03;;
15788;SDS011;59075;50.670;6.474;2022-11-21T16:21:21;758.13;;;701.60;;
15788;SDS011;59075;50.670;6.474;2022-11-21T16:23:47;753.13;;;696.90;;
15788;SDS011;59075;50.670;6.474;2022-11-21T16:26:15;772.10;;;714.93;;
15788;SDS011;59075;50.670;6.474;2022-11-21T16:28:42;780.33;;;722.00;;
15788;SDS011;59075;50.670;6.474;2022-11-21T16:31:15;770.20;;;712.87;;
15788;SDS011;59075;50.670;6.474;2022-11-21T16:33:44;757.57;;;701.47;;
15788;SDS011;59075;50.670;6.474;2022-11-21T16:36:12;759.27;;;702.90;;
15788;SDS011;59075;50.670;6.474;2022-11-21T16:38:54;765.83;;;709.07;;
15788;SDS011;59075;50.670;6.474;2022-11-21T16:41:58;758.37;;;702.20;;
15788;SDS011;59075;50.670;6.474;2022-11-21T16:44:25;754.43;;;698.43;;
15788;SDS011;59075;50.670;6.474;2022-11-21T16:46:55;743.37;;;687.80;;
15788;SDS011;59075;50.670;6.474;2022-11-21T16:49:22;757.20;;;701.20;;
15788;SDS011;59075;50.670;6.474;2022-11-21T16:51:50;756.97;;;700.87;;
15788;SDS011;59075;50.670;6.474;2022-11-21T16:54:16;763.13;;;706.77;;
15788;SDS011;59075;50.670;6.474;2022-11-21T16:56:43;759.83;;;703.67;;
15788;SDS011;59075;50.670;6.474;2022-11-21T16:59:10;764.53;;;708.43;;
15788;SDS011;59075;50.670;6.474;2022-11-21T17:01:36;756.93;;;701.03;;
15788;SDS011;59075;50.670;6.474;2022-11-21T17:04:03;752.53;;;696.50;;
15788;SDS011;59075;50.670;6.474;2022-11-21T17:06:31;756.23;;;700.07;;
15788;SDS011;59075;50.670;6.474;2022-11-21T17:08:59;762.03;;;706.07;;
15788;SDS011;59075;50.670;6.474;2022-11-21T17:11:27;756.83;;;700.53;;
15788;SDS011;59075;50.670;6.474;2022-11-21T17:13:57;759.73;;;703.67;;
15788;SDS011;59075;50.670;6.474;2022-11-21T17:16:25;758.37;;;702.30;;
15788;SDS011;59075;50.670;6.474;2022-11-21T17:18:52;756.07;;;700.33;;
15788;SDS011;59075;50.670;6.474;2022-11-21T17:21:19;757.53;;;701.17;;
15788;SDS011;59075;50.670;6.474;2022-11-21T17:23:47;760.20;;;704.20;;
15788;SDS011;59075;50.670;6.474;2022-11-21T17:26:15;754.57;;;698.73;;
15788;SDS011;59075;50.670;6.474;2022-11-21T17:28:43;748.93;;;693.23;;
15788;SDS011;59075;50.670;6.474;2022-11-21T17:31:15;752.93;;;696.97;;
15788;SDS011;59075;50.670;6.474;2022-11-21T17:33:42;751.03;;;695.37;;
15788;SDS011;59075;50.670;6.474;2022-11-21T17:36:14;757.53;;;701.53;;
15788;SDS011;59075;50.670;6.474;2022-11-21T17:38:41;762.93;;;706.73;;
15788;SDS011;59075;50.670;6.474;2022-11-21T17:41:09;764.70;;;708.37;;
15788;SDS011;59075;50.670;6.474;2022-11-21T17:43:38;764.27;;;707.93;;
15788;SDS011;59075;50.670;6.474;2022-11-21T17:46:05;765.17;;;708.47;;
15788;SDS011;59075;50.670;6.474;2022-11-21T17:48:33;757.97;;;701.87;;
15788;SDS011;59075;50.670;6.474;2022-11-21T17:51:01;759.03;;;702.83;;
15788;SDS011;59075;50.670;6.474;2022-11-21T17:53:30;762.37;;;706.07;;
15788;SDS011;59075;50.670;6.474;2022-11-21T17:55:58;762.27;;;706.00;;
15788;SDS011;59075;50.670;6.474;2022-11-21T17:58:25;763.03;;;707.00;;
15788;SDS011;59075;50.670;6.474;2022-11-21T18:00:54;763.73;;;707.37;;
15788;SDS011;59075;50.670;6.474;2022-11-21T18:03:22;767.60;;;711.37;;
15788;SDS011;59075;50.670;6.474;2022-11-21T18:05:57;772.83;;;715.47;;
15788;SDS011;59075;50.670;6.474;2022-11-21T18:08:25;768.13;;;711.60;;
15788;SDS011;59075;50.670;6.474;2022-11-21T18:10:54;771.23;;;714.70;;
15788;SDS011;59075;50.670;6.474;2022-11-21T18:13:21;766.53;;;710.27;;
15788;SDS011;59075;50.670;6.474;2022-11-21T18:15:48;767.80;;;710.60;;
15788;SDS011;59075;50.670;6.474;2022-11-21T18:18:16;767.53;;;711.07;;
15788;SDS011;59075;50.670;6.474;2022-11-21T18:20:43;771.73;;;715.27;;
15788;SDS011;59075;50.670;6.474;2022-11-21T18:23:10;775.20;;;718.10;;
15788;SDS011;59075;50.670;6.474;2022-11-21T18:25:37;769.30;;;712.13;;
15788;SDS011;59075;50.670;6.474;2022-11-21T18:28:04;780.87;;;724.00;;
15788;SDS011;59075;50.670;6.474;2022-11-21T18:30:31;767.07;;;710.57;;
15788;SDS011;59075;50.670;6.474;2022-11-21T18:32:58;783.83;;;726.77;;
15788;SDS011;59075;50.670;6.474;2022-11-21T18:35:26;780.77;;;723.80;;
15788;SDS011;59075;50.670;6.474;2022-11-21T18:37:53;771.70;;;715.17;;
15788;SDS011;59075;50.670;6.474;2022-11-21T18:40:20;768.67;;;711.70;;
15788;SDS011;59075;50.670;6.474;2022-11-21T18:42:47;765.67;;;709.30;;
15788;SDS011;59075;50.670;6.474;2022-11-21T18:45:14;766.23;;;709.93;;
15788;SDS011;59075;50.670;6.474;2022-11-21T18:47:41;761.87;;;705.43;;
15788;SDS011;59075;50.670;6.474;2022-11-21T18:50:08;773.60;;;717.00;;
15788;SDS011;59075;50.670;6.474;2022-11-21T18:52:37;764.37;;;707.97;;
15788;SDS011;59075;50.670;6.474;2022-11-21T18:55:05;766.67;;;710.23;;
15788;SDS011;59075;50.670;6.474;2022-11-21T18:57:32;772.80;;;716.13;;
15788;SDS011;59075;50.670;6.474;2022-11-21T18:59:59;775.53;;;718.93;;
15788;SDS011;59075;50.670;6.474;2022-11-21T19:02:26;763.23;;;706.37;;
15788;SDS011;59075;50.670;6.474;2022-11-21T19:04:53;760.67;;;704.60;;
15788;SDS011;59075;50.670;6.474;2022-11-21T19:07:19;765.10;;;708.87;;
15788;SDS011;59075;50.670;6.474;2022-11-21T19:09:47;760.03;;;703.97;;
15788;SDS011;59075;50.670;6.474;2022-11-21T19:12:14;768.27;;;711.73;;
15788;SDS011;59075;50.670;6.474;2022-11-21T19:14:41;756.20;;;700.10;;
15788;SDS011;59075;50.670;6.474;2022-11-21T19:17:08;757.87;;;701.73;;
15788;SDS011;59075;50.670;6.474;2022-11-21T19:19:34;752.83;;;697.00;;
15788;SDS011;59075;50.670;6.474;2022-11-21T19:22:02;768.67;;;712.10;;
15788;SDS011;59075;50.670;6.474;2022-11-21T19:24:30;769.97;;;713.43;;
15788;SDS011;59075;50.670;6.474;2022-11-21T19:26:58;771.10;;;714.63;;
15788;SDS011;59075;50.670;6.474;2022-11-21T19:29:25;767.87;;;711.40;;
15788;SDS011;59075;50.670;6.474;2022-11-21T19:31:53;754.53;;;698.37;;
15788;SDS011;59075;50.670;6.474;2022-11-21T19:34:20;756.40;;;700.50;;
15788;SDS011;59075;50.670;6.474;2022-11-21T19:36:47;760.33;;;704.07;;
15788;SDS011;59075;50.670;6.474;2022-11-21T19:39:14;764.50;;;708.17;;
15788;SDS011;59075;50.670;6.474;2022-11-21T19:41:46;757.87;;;701.67;;
15788;SDS011;59075;50.670;6.474;2022-11-21T19:44:15;760.27;;;704.30;;
15788;SDS011;59075;50.670;6.474;2022-11-21T19:46:41;757.20;;;701.07;;
15788;SDS011;59075;50.670;6.474;2022-11-21T19:49:09;756.43;;;700.33;;
15788;SDS011;59075;50.670;6.474;2022-11-21T19:51:36;757.23;;;700.80;;
15788;SDS011;59075;50.670;6.474;2022-11-21T19:54:04;762.37;;;706.40;;
15788;SDS011;59075;50.670;6.474;2022-11-21T19:56:32;754.20;;;698.27;;
15788;SDS011;59075;50.670;6.474;2022-11-21T19:59:00;765.83;;;709.73;;
15788;SDS011;59075;50.670;6.474;2022-11-21T20:01:28;756.13;;;699.87;;
15788;SDS011;59075;50.670;6.474;2022-11-21T20:03:57;759.37;;;703.37;;
15788;SDS011;59075;50.670;6.474;2022-11-21T20:06:25;768.07;;;711.73;;
15788;SDS011;59075;50.670;6.474;2022-11-21T20:08:54;758.63;;;702.57;;
15788;SDS011;59075;50.670;6.474;2022-11-21T20:11:22;761.97;;;705.83;;
15788;SDS011;59075;50.670;6.474;2022-11-21T20:13:49;759.80;;;703.77;;
15788;SDS011;59075;50.670;6.474;2022-11-21T20:16:17;764.23;;;707.83;;
15788;SDS011;59075;50.670;6.474;2022-11-21T20:18:47;774.73;;;718.17;;
15788;SDS011;59075;50.670;6.474;2022-11-21T20:21:15;748.60;;;692.97;;
15788;SDS011;59075;50.670;6.474;2022-11-21T20:23:42;750.43;;;694.53;;
15788;SDS011;59075;50.670;6.474;2022-11-21T20:26:10;751.33;;;695.33;;
15788;SDS011;59075;50.670;6.474;2022-11-21T20:28:37;762.50;;;706.47;;
15788;SDS011;59075;50.670;6.474;2022-11-21T20:31:04;755.93;;;700.07;;
15788;SDS011;59075;50.670;6.474;2022-11-21T20:33:35;775.80;;;719.10;;
15788;SDS011;59075;50.670;6.474;2022-11-21T20:36:05;770.10;;;713.60;;
15788;SDS011;59075;50.670;6.474;2022-11-21T20:38:33;753.73;;;697.83;;
15788;SDS011;59075;50.670;6.474;2022-11-21T20:41:00;756.00;;;700.17;;